createdAt,value
2018-09-15T00:01:24.650Z,8.73
2018-09-15T00:03:51.747Z,8.63
2018-09-15T00:06:18.849Z,8.10
2018-09-15T00:08:45.987Z,8.13
2018-09-15T00:11:13.075Z,9.03
2018-09-15T00:13:40.226Z,8.33
2018-09-15T00:16:07.384Z,7.93
2018-09-15T00:18:34.526Z,8.00
2018-09-15T00:21:01.649Z,9.73
2018-09-15T00:23:28.905Z,7.67
2018-09-15T00:25:56.073Z,7.83
2018-09-15T00:28:23.192Z,7.77
2018-09-15T00:30:50.467Z,7.43
2018-09-15T00:33:17.635Z,8.17
2018-09-15T00:35:44.769Z,8.63
2018-09-15T00:38:12.043Z,8.30
2018-09-15T00:40:39.207Z,7.17
2018-09-15T00:43:06.840Z,8.20
2018-09-15T00:45:33.962Z,8.17
2018-09-15T00:48:03.295Z,8.03
2018-09-15T00:50:31.489Z,7.57
2018-09-15T00:52:58.598Z,8.97
2018-09-15T00:55:25.911Z,9.00
2018-09-15T00:57:53.014Z,8.90
2018-09-15T01:00:20.657Z,7.63
2018-09-15T01:02:47.922Z,8.83
2018-09-15T01:05:15.047Z,8.60
2018-09-15T01:07:42.275Z,7.70
2018-09-15T01:10:09.451Z,8.60
2018-09-15T01:12:36.555Z,9.33
2018-09-15T01:15:05.061Z,8.27
2018-09-15T01:17:32.133Z,8.03
2018-09-15T01:19:59.290Z,8.00
2018-09-15T01:22:26.334Z,8.00
2018-09-15T01:24:53.500Z,8.30
2018-09-15T01:27:20.676Z,8.10
2018-09-15T01:29:47.855Z,8.40
2018-09-15T01:32:15.056Z,8.10
2018-09-15T01:34:42.954Z,7.73
2018-09-15T01:37:10.162Z,7.30
2018-09-15T01:39:37.340Z,7.80
2018-09-15T01:42:04.472Z,7.87
2018-09-15T01:44:31.679Z,8.40
2018-09-15T01:46:58.780Z,8.13
2018-09-15T01:49:25.898Z,7.57
2018-09-15T01:51:53.090Z,7.53
2018-09-15T01:54:20.191Z,8.70
2018-09-15T01:56:47.246Z,7.50
2018-09-15T01:59:14.389Z,7.13
2018-09-15T02:01:42.564Z,8.50
2018-09-15T02:04:09.939Z,8.07
2018-09-15T02:06:37.399Z,7.70
2018-09-15T02:09:08.099Z,10.10
2018-09-15T02:11:35.233Z,8.47
2018-09-15T02:14:02.364Z,7.97
2018-09-15T02:16:29.569Z,8.40
2018-09-15T02:18:56.717Z,9.13
2018-09-15T02:21:23.840Z,8.90
2018-09-15T02:23:51.117Z,9.27
2018-09-15T02:26:23.151Z,8.27
2018-09-15T02:28:57.200Z,8.50
2018-09-15T02:31:25.271Z,8.70
2018-09-15T02:33:52.385Z,8.80
2018-09-15T02:36:19.598Z,7.60
2018-09-15T02:38:46.644Z,8.60
2018-09-15T02:41:14.411Z,8.77
2018-09-15T02:43:41.585Z,8.03
2018-09-15T02:46:08.661Z,8.03
2018-09-15T02:48:35.815Z,7.40
2018-09-15T02:51:02.933Z,8.17
2018-09-15T02:53:30.126Z,8.30
2018-09-15T02:55:57.345Z,8.20
2018-09-15T02:58:24.431Z,8.03
2018-09-15T03:00:51.858Z,8.13
2018-09-15T03:03:23.140Z,8.00
2018-09-15T03:05:50.265Z,7.50
2018-09-15T03:11:39.047Z,8.50
2018-09-15T03:14:06.194Z,9.10
2018-09-15T03:16:33.340Z,8.70
2018-09-15T03:19:00.436Z,8.57
2018-09-15T03:21:27.595Z,8.90
2018-09-15T03:23:54.724Z,8.20
2018-09-15T03:26:21.956Z,9.90
2018-09-15T03:28:49.092Z,11.33
2018-09-15T03:31:16.209Z,10.77
2018-09-15T03:33:43.335Z,10.40
2018-09-15T03:36:10.508Z,9.57
2018-09-15T03:38:37.588Z,8.43
2018-09-15T03:41:04.852Z,9.23
2018-09-15T03:43:32.005Z,9.10
2018-09-15T03:46:00.199Z,9.87
2018-09-15T03:48:27.420Z,9.10
2018-09-15T03:50:55.251Z,9.40
2018-09-15T03:53:22.432Z,8.67
2018-09-15T03:55:49.567Z,8.87
2018-09-15T03:58:16.737Z,8.60
2018-09-15T04:00:45.685Z,9.27
2018-09-15T04:03:12.962Z,9.17
2018-09-15T04:05:40.169Z,8.60
2018-09-15T04:08:07.324Z,9.10
2018-09-15T04:10:34.476Z,9.00
2018-09-15T04:13:01.628Z,9.37
2018-09-15T04:15:28.855Z,11.03
2018-09-15T04:17:58.109Z,9.70
2018-09-15T04:20:25.384Z,9.80
2018-09-15T04:22:52.526Z,10.27
2018-09-15T04:25:19.661Z,9.00
2018-09-15T04:27:46.828Z,9.33
2018-09-15T04:30:14.560Z,11.77
2018-09-15T04:32:41.712Z,10.10
2018-09-15T04:35:08.800Z,10.10
2018-09-15T04:37:35.897Z,10.77
2018-09-15T04:40:03.113Z,10.20
2018-09-15T04:42:31.351Z,10.40
2018-09-15T04:44:58.657Z,10.60
2018-09-15T04:47:25.767Z,11.00
2018-09-15T04:49:53.083Z,10.80
2018-09-15T04:52:20.291Z,10.13
2018-09-15T04:54:47.431Z,10.27
2018-09-15T04:57:14.672Z,10.77
2018-09-15T04:59:42.852Z,10.57
2018-09-15T05:02:10.740Z,10.50
2018-09-15T05:04:37.846Z,10.97
2018-09-15T05:07:05.197Z,9.90
2018-09-15T05:09:32.453Z,10.87
2018-09-15T05:12:07.996Z,10.53
2018-09-15T05:14:35.200Z,9.67
2018-09-15T05:17:02.352Z,11.30
2018-09-15T05:19:29.562Z,10.10
2018-09-15T05:21:57.393Z,10.00
2018-09-15T05:24:24.523Z,10.10
2018-09-15T05:26:51.684Z,10.80
2018-09-15T05:29:18.968Z,10.80
2018-09-15T05:31:46.178Z,10.90
2018-09-15T05:34:13.395Z,12.50
2018-09-15T05:36:40.619Z,12.20
2018-09-15T05:39:09.460Z,11.00
2018-09-15T05:41:36.860Z,13.23
2018-09-15T05:44:04.203Z,11.43
2018-09-15T05:46:31.348Z,10.50
2018-09-15T05:48:58.520Z,9.93
2018-09-15T05:51:25.741Z,10.93
2018-09-15T05:53:52.939Z,10.60
2018-09-15T05:56:20.209Z,10.27
2018-09-15T05:58:47.344Z,10.50
2018-09-15T06:01:14.507Z,10.70
2018-09-15T06:03:41.657Z,11.10
2018-09-15T06:06:08.849Z,10.43
2018-09-15T06:08:36.106Z,10.60
2018-09-15T06:11:03.321Z,9.30
2018-09-15T06:13:30.460Z,9.33
2018-09-15T06:16:01.689Z,12.37
2018-09-15T06:18:28.865Z,11.93
2018-09-15T06:20:56.122Z,11.57
2018-09-15T06:23:24.340Z,13.53
2018-09-15T06:25:57.072Z,12.87
2018-09-15T06:28:24.335Z,11.73
2018-09-15T06:30:54.145Z,11.20
2018-09-15T06:33:21.340Z,11.97
2018-09-15T06:35:48.517Z,11.90
2018-09-15T06:38:15.766Z,13.20
2018-09-15T06:40:42.937Z,12.43
2018-09-15T06:43:10.108Z,12.03
2018-09-15T06:45:37.469Z,14.20
2018-09-15T06:48:05.112Z,13.20
2018-09-15T06:50:32.278Z,12.53
2018-09-15T06:52:59.748Z,13.23
2018-09-15T06:55:27.560Z,11.07
2018-09-15T06:57:54.840Z,11.77
2018-09-15T07:00:22.127Z,13.37
2018-09-15T07:02:49.577Z,11.80
2018-09-15T07:05:17.192Z,10.53
2018-09-15T07:07:45.005Z,11.50
2018-09-15T07:10:12.221Z,11.20
2018-09-15T07:12:39.962Z,12.37
2018-09-15T07:15:07.235Z,11.67
2018-09-15T07:17:34.500Z,13.10
2018-09-15T07:20:01.777Z,11.87
2018-09-15T07:22:29.226Z,11.40
2018-09-15T07:24:56.667Z,11.00
2018-09-15T07:27:24.038Z,11.50
2018-09-15T07:29:51.282Z,10.67
2018-09-15T07:32:18.738Z,11.00
2018-09-15T07:34:46.978Z,11.30
2018-09-15T07:37:14.587Z,11.70
2018-09-15T07:39:41.731Z,11.40
2018-09-15T07:42:09.122Z,11.37
2018-09-15T07:44:36.304Z,10.77
2018-09-15T07:47:03.656Z,10.53
2018-09-15T07:49:31.674Z,11.43
2018-09-15T07:51:59.100Z,11.23
2018-09-15T07:54:26.426Z,11.40
2018-09-15T07:56:54.162Z,11.10
2018-09-15T07:59:21.489Z,11.03
2018-09-15T08:01:49.049Z,12.60
2018-09-15T08:04:16.607Z,10.80
2018-09-15T08:06:43.840Z,11.77
2018-09-15T08:09:11.413Z,12.00
2018-09-15T08:11:38.997Z,10.23
2018-09-15T08:14:06.292Z,9.70
2018-09-15T08:16:33.411Z,10.70
2018-09-15T08:19:00.640Z,8.00
2018-09-15T08:21:27.879Z,8.77
2018-09-15T08:23:55.440Z,8.17
2018-09-15T08:26:22.833Z,9.23
2018-09-15T08:28:50.569Z,9.23
2018-09-15T08:31:17.736Z,9.00
2018-09-15T08:33:45.605Z,8.27
2018-09-15T08:36:13.005Z,9.67
2018-09-15T08:38:40.201Z,8.03
2018-09-15T08:41:07.478Z,7.50
2018-09-15T08:43:34.939Z,8.17
2018-09-15T08:46:02.180Z,7.27
2018-09-15T08:48:29.400Z,6.83
2018-09-15T08:50:58.103Z,7.23
2018-09-15T08:53:26.610Z,7.00
2018-09-15T08:55:53.986Z,6.37
2018-09-15T08:58:21.247Z,8.47
2018-09-15T09:00:49.224Z,8.00
2018-09-15T09:03:16.452Z,6.70
2018-09-15T09:05:43.622Z,7.20
2018-09-15T09:08:10.767Z,6.10
2018-09-15T09:10:37.919Z,5.57
2018-09-15T09:13:05.933Z,6.53
2018-09-15T09:15:33.123Z,4.97
2018-09-15T09:18:00.466Z,3.63
2018-09-15T09:20:27.980Z,3.80
2018-09-15T09:22:55.247Z,3.83
2018-09-15T09:25:22.871Z,3.30
2018-09-15T09:27:50.118Z,4.50
2018-09-15T09:30:18.130Z,4.00
2018-09-15T09:32:46.454Z,4.50
2018-09-15T09:35:14.835Z,4.30
2018-09-15T09:37:42.302Z,4.80
2018-09-15T09:40:10.113Z,4.73
2018-09-15T09:42:40.916Z,4.23
2018-09-15T09:45:09.066Z,3.67
2018-09-15T09:47:39.983Z,4.20
2018-09-15T09:50:07.464Z,4.20
2018-09-15T09:52:35.253Z,4.70
2018-09-15T09:55:02.752Z,4.63
2018-09-15T09:57:30.454Z,5.30
2018-09-15T09:59:57.861Z,4.60
2018-09-15T10:02:25.256Z,4.77
2018-09-15T10:04:55.179Z,4.10
2018-09-15T10:07:22.914Z,4.43
2018-09-15T10:09:50.201Z,4.00
2018-09-15T10:12:17.530Z,2.70
2018-09-15T10:14:44.955Z,3.00
2018-09-15T10:17:12.540Z,2.90
2018-09-15T10:19:40.039Z,2.90
2018-09-15T10:22:07.638Z,2.90
2018-09-15T10:24:35.796Z,3.43
2018-09-15T10:27:04.561Z,3.70
2018-09-15T10:29:32.239Z,3.53
2018-09-15T10:31:59.746Z,3.20
2018-09-15T10:34:26.955Z,3.17
2018-09-15T10:36:54.843Z,3.30
2018-09-15T10:39:22.194Z,3.40
2018-09-15T10:41:50.302Z,3.77
2018-09-15T10:44:17.741Z,4.10
2018-09-15T10:46:48.087Z,3.47
2018-09-15T10:49:15.915Z,3.07
2018-09-15T10:51:43.645Z,3.27
2018-09-15T10:54:10.921Z,3.77
2018-09-15T10:56:39.618Z,3.33
2018-09-15T10:59:07.322Z,3.20
2018-09-15T11:01:35.224Z,3.10
2018-09-15T11:04:03.793Z,2.73
2018-09-15T11:06:32.174Z,2.63
2018-09-15T11:08:59.530Z,2.97
2018-09-15T11:11:26.759Z,2.70
2018-09-15T11:13:53.959Z,2.63
2018-09-15T11:16:21.642Z,2.83
2018-09-15T11:18:49.820Z,2.63
2018-09-15T11:21:17.331Z,2.90
2018-09-15T11:23:45.157Z,2.50
2018-09-15T11:26:12.480Z,2.77
2018-09-15T11:28:40.626Z,2.90
2018-09-15T11:31:08.179Z,2.77
2018-09-15T11:33:35.702Z,2.70
2018-09-15T11:36:03.124Z,2.20
2018-09-15T11:38:32.210Z,3.00
2018-09-15T11:41:00.194Z,2.97
2018-09-15T11:43:27.473Z,2.90
2018-09-15T11:45:54.797Z,2.90
2018-09-15T11:48:22.074Z,3.13
2018-09-15T11:50:49.204Z,2.60
2018-09-15T11:53:17.197Z,2.20
2018-09-15T11:55:44.515Z,2.90
2018-09-15T11:58:11.744Z,2.27
2018-09-15T12:01:04.332Z,2.53
2018-09-15T12:03:33.917Z,2.57
2018-09-15T12:06:01.100Z,2.13
2018-09-15T12:08:28.329Z,2.40
2018-09-15T12:10:56.647Z,2.30
2018-09-15T12:13:23.800Z,2.00
2018-09-15T12:15:51.567Z,2.37
2018-09-15T12:18:18.708Z,1.83
2018-09-15T12:20:46.061Z,2.00
2018-09-15T12:23:13.660Z,3.40
2018-09-15T12:25:41.152Z,2.10
2018-09-15T12:28:08.742Z,2.60
2018-09-15T12:30:36.322Z,2.13
2018-09-15T12:33:03.802Z,9.43
2018-09-15T12:35:31.105Z,3.27
2018-09-15T12:37:58.465Z,2.90
2018-09-15T12:40:25.713Z,2.50
2018-09-15T12:42:53.690Z,2.30
2018-09-15T12:45:21.627Z,2.57
2018-09-15T12:47:48.946Z,3.00
2018-09-15T12:50:16.222Z,3.10
2018-09-15T12:52:43.564Z,2.30
2018-09-15T12:55:10.937Z,2.00
2018-09-15T12:57:38.428Z,2.30
2018-09-15T13:00:07.852Z,3.00
2018-09-15T13:02:35.077Z,2.80
2018-09-15T13:05:02.310Z,2.60
2018-09-15T13:07:29.583Z,2.03
2018-09-15T13:09:56.860Z,2.07
2018-09-15T13:12:24.089Z,2.67
2018-09-15T13:14:51.357Z,2.13
2018-09-15T13:17:18.738Z,2.20
2018-09-15T13:19:46.154Z,2.40
2018-09-15T13:22:14.716Z,2.20
2018-09-15T13:24:42.168Z,2.43
2018-09-15T13:27:09.540Z,2.40
2018-09-15T13:29:37.336Z,2.30
2018-09-15T13:32:04.568Z,2.20
2018-09-15T13:34:31.872Z,2.30
2018-09-15T13:36:59.057Z,2.17
2018-09-15T13:39:26.372Z,2.60
2018-09-15T13:41:54.191Z,1.80
2018-09-15T13:44:21.485Z,2.27
2018-09-15T13:46:48.808Z,2.40
2018-09-15T13:49:16.696Z,2.00
2018-09-15T13:51:44.066Z,2.17
2018-09-15T13:54:11.335Z,2.93
2018-09-15T13:56:38.755Z,2.10
2018-09-15T13:59:06.335Z,2.03
2018-09-15T14:01:34.070Z,1.93
2018-09-15T14:04:01.402Z,2.10
2018-09-15T14:06:28.640Z,1.90
2018-09-15T14:08:57.934Z,2.10
2018-09-15T14:11:25.249Z,2.27
2018-09-15T14:13:52.546Z,2.20
2018-09-15T14:16:20.040Z,2.40
2018-09-15T14:18:47.755Z,2.37
2018-09-15T14:21:15.535Z,2.23
2018-09-15T14:23:43.399Z,1.70
2018-09-15T14:26:10.809Z,2.40
2018-09-15T14:28:38.237Z,2.60
2018-09-15T14:31:05.565Z,2.30
2018-09-15T14:33:32.794Z,2.27
2018-09-15T14:35:59.961Z,2.40
2018-09-15T14:38:27.127Z,2.10
2018-09-15T14:40:54.422Z,2.80
2018-09-15T14:43:21.610Z,2.50
2018-09-15T14:45:48.832Z,2.20
2018-09-15T14:48:16.071Z,2.23
2018-09-15T14:50:43.234Z,2.77
2018-09-15T14:53:11.084Z,1.90
2018-09-15T14:55:38.354Z,2.47
2018-09-15T14:58:05.732Z,2.23
2018-09-15T15:00:33.399Z,1.97
2018-09-15T15:03:05.885Z,2.00
2018-09-15T15:05:33.250Z,2.70
2018-09-15T15:08:00.656Z,2.40
2018-09-15T15:10:28.567Z,2.10
2018-09-15T15:12:55.812Z,2.10
2018-09-15T15:15:23.240Z,2.00
2018-09-15T15:17:50.608Z,2.40
2018-09-15T15:20:18.927Z,2.20
2018-09-15T15:22:46.155Z,2.00
2018-09-15T15:25:13.514Z,1.93
2018-09-15T15:27:40.634Z,2.70
2018-09-15T15:30:07.893Z,2.43
2018-09-15T15:32:35.138Z,2.33
2018-09-15T15:35:02.491Z,2.40
2018-09-15T15:37:29.945Z,2.60
2018-09-15T15:39:57.441Z,2.60
2018-09-15T15:42:24.685Z,2.33
2018-09-15T15:44:51.994Z,2.40
2018-09-15T15:47:19.461Z,2.27
2018-09-15T15:49:47.279Z,2.20
2018-09-15T15:52:14.467Z,3.83
2018-09-15T15:54:41.805Z,2.40
2018-09-15T15:57:09.604Z,2.40
2018-09-15T15:59:36.843Z,2.77
2018-09-15T16:02:04.094Z,2.87
2018-09-15T16:04:32.427Z,2.77
2018-09-15T16:06:59.714Z,2.60
2018-09-15T16:09:27.019Z,2.40
2018-09-15T16:11:54.213Z,2.97
2018-09-15T16:14:21.527Z,3.70
2018-09-15T16:16:48.771Z,3.03
2018-09-15T16:19:16.013Z,7.87
2018-09-15T16:21:43.281Z,2.40
2018-09-15T16:24:10.510Z,2.87
2018-09-15T16:26:37.783Z,2.13
2018-09-15T16:29:05.557Z,2.50
2018-09-15T16:31:33.462Z,2.53
2018-09-15T16:34:01.154Z,2.53
2018-09-15T16:36:28.476Z,2.67
2018-09-15T16:38:55.692Z,3.10
2018-09-15T16:41:22.993Z,3.40
2018-09-15T16:43:51.025Z,3.30
2018-09-15T16:46:18.168Z,2.77
2018-09-15T16:48:46.740Z,4.47
2018-09-15T16:51:13.918Z,3.33
2018-09-15T16:53:41.098Z,2.77
2018-09-15T16:56:10.302Z,3.40
2018-09-15T16:58:37.410Z,2.60
2018-09-15T17:01:05.075Z,3.37
2018-09-15T17:03:32.540Z,3.10
2018-09-15T17:05:59.768Z,3.00
2018-09-15T17:08:26.997Z,3.10
2018-09-15T17:10:54.215Z,3.30
2018-09-15T17:13:21.574Z,2.93
2018-09-15T17:15:48.896Z,4.13
2018-09-15T17:18:16.225Z,3.50
2018-09-15T17:20:43.821Z,2.73
2018-09-15T17:23:11.065Z,4.17
2018-09-15T17:25:38.299Z,3.87
2018-09-15T17:28:05.644Z,2.97
2018-09-15T17:30:33.423Z,3.23
2018-09-15T17:33:00.819Z,3.83
2018-09-15T17:35:27.957Z,3.60
2018-09-15T17:37:55.185Z,3.57
2018-09-15T17:40:23.019Z,3.27
2018-09-15T17:42:50.262Z,3.60
2018-09-15T17:45:18.086Z,4.13
2018-09-15T17:47:45.243Z,4.27
2018-09-15T17:50:12.443Z,4.53
2018-09-15T17:52:39.704Z,4.00
2018-09-15T17:55:07.112Z,3.57
2018-09-15T17:57:39.574Z,3.57
2018-09-15T18:00:07.846Z,3.53
2018-09-15T18:02:35.338Z,4.60
2018-09-15T18:05:03.634Z,4.20
2018-09-15T18:07:31.047Z,3.67
2018-09-15T18:09:58.975Z,4.20
2018-09-15T18:12:27.421Z,3.93
2018-09-15T18:14:55.651Z,4.70
2018-09-15T18:17:22.877Z,4.70
2018-09-15T18:19:50.165Z,4.10
2018-09-15T18:22:18.351Z,4.50
2018-09-15T18:24:46.288Z,4.30
2018-09-15T18:27:13.720Z,3.67
2018-09-15T18:29:41.126Z,3.80
2018-09-15T18:32:08.440Z,3.70
2018-09-15T18:34:37.662Z,3.87
2018-09-15T18:37:05.554Z,3.57
2018-09-15T18:39:32.938Z,4.47
2018-09-15T18:42:00.381Z,4.13
2018-09-15T18:44:27.744Z,4.60
2018-09-15T18:46:55.037Z,3.80
2018-09-15T18:49:23.184Z,4.00
2018-09-15T18:51:52.084Z,4.37
2018-09-15T18:54:19.790Z,3.60
2018-09-15T18:56:48.191Z,4.30
2018-09-15T18:59:15.608Z,4.17
2018-09-15T19:01:44.754Z,5.30
2018-09-15T19:04:12.706Z,4.47
2018-09-15T19:06:40.794Z,4.63
2018-09-15T19:09:09.982Z,4.70
2018-09-15T19:11:37.986Z,4.90
2018-09-15T19:14:05.525Z,4.03
2018-09-15T19:16:32.775Z,5.57
2018-09-15T19:19:00.080Z,4.80
2018-09-15T19:21:27.844Z,7.40
2018-09-15T19:23:55.032Z,4.93
2018-09-15T19:26:22.402Z,4.30
2018-09-15T19:28:49.614Z,5.00
2018-09-15T19:31:17.080Z,5.23
2018-09-15T19:33:45.022Z,4.13
2018-09-15T19:36:12.631Z,5.87
2018-09-15T19:38:39.877Z,5.60
2018-09-15T19:41:07.278Z,5.80
2018-09-15T19:43:41.320Z,5.43
2018-09-15T19:46:08.904Z,5.40
2018-09-15T19:48:36.521Z,5.60
2018-09-15T19:51:04.741Z,6.20
2018-09-15T19:53:32.046Z,8.80
2018-09-15T19:55:59.661Z,6.40
2018-09-15T19:58:27.481Z,6.83
2018-09-15T20:00:54.754Z,8.30
2018-09-15T20:03:23.134Z,10.40
2018-09-15T20:05:50.454Z,11.27
2018-09-15T20:08:20.980Z,9.60
2018-09-15T20:10:48.411Z,11.67
2018-09-15T20:13:16.130Z,13.80
2018-09-15T20:15:43.191Z,11.10
2018-09-15T20:18:09.782Z,12.23
2018-09-15T20:20:36.116Z,10.40
2018-09-15T20:23:04.271Z,10.93
2018-09-15T20:25:31.884Z,8.87
2018-09-15T20:27:59.839Z,8.33
2018-09-15T20:30:27.146Z,7.93
2018-09-15T20:32:54.521Z,7.83
2018-09-15T20:35:22.060Z,7.67
2018-09-15T20:37:50.765Z,8.67
2018-09-15T20:40:18.874Z,8.03
2018-09-15T20:42:46.190Z,8.30
2018-09-15T20:45:13.779Z,10.90
2018-09-15T20:47:41.922Z,10.47
2018-09-15T20:50:09.143Z,10.33
2018-09-15T20:52:36.428Z,9.50
2018-09-15T20:55:04.067Z,9.13
2018-09-15T20:57:32.466Z,8.10
2018-09-15T21:00:01.288Z,7.80
2018-09-15T21:02:30.671Z,9.77
2018-09-15T21:04:57.919Z,11.13
2018-09-15T21:07:26.041Z,9.40
2018-09-15T21:09:53.214Z,9.43
2018-09-15T21:12:21.108Z,9.53
2018-09-15T21:14:48.437Z,8.93
2018-09-15T21:17:17.100Z,8.50
2018-09-15T21:19:44.800Z,10.70
2018-09-15T21:22:12.006Z,10.30
2018-09-15T21:24:39.977Z,9.37
2018-09-15T21:27:08.064Z,9.17
2018-09-15T21:29:36.186Z,8.80
2018-09-15T21:32:03.484Z,8.80
2018-09-15T21:34:33.754Z,9.93
2018-09-15T21:37:02.549Z,8.50
2018-09-15T21:39:29.960Z,9.30
2018-09-15T21:41:58.380Z,9.60
2018-09-15T21:44:25.736Z,12.00
2018-09-15T21:46:53.061Z,9.63
2018-09-15T21:49:20.592Z,9.77
2018-09-15T21:51:48.033Z,9.70
2018-09-15T21:54:15.558Z,9.37
2018-09-15T21:56:43.884Z,9.20
2018-09-15T21:59:13.560Z,8.70
2018-09-15T22:01:40.767Z,10.00
2018-09-15T22:04:13.839Z,11.37
2018-09-15T22:06:41.310Z,9.90
2018-09-15T22:09:09.659Z,10.07
2018-09-15T22:11:38.024Z,10.20
2018-09-15T22:14:05.876Z,11.07
2018-09-15T22:16:33.120Z,9.47
2018-09-15T22:19:01.398Z,10.63
2018-09-15T22:21:28.522Z,9.63
2018-09-15T22:23:56.046Z,10.13
2018-09-15T22:26:24.068Z,9.90
2018-09-15T22:28:51.183Z,10.40
2018-09-15T22:31:18.536Z,10.30
2018-09-15T22:33:45.781Z,9.87
2018-09-15T22:36:13.117Z,9.07
2018-09-15T22:38:40.492Z,8.87
2018-09-15T22:41:08.168Z,9.20
2018-09-15T22:43:35.333Z,9.20
2018-09-15T22:46:02.669Z,8.80
2018-09-15T22:48:30.157Z,8.57
2018-09-15T22:50:57.426Z,8.27
2018-09-15T22:53:25.295Z,8.30
2018-09-15T22:55:52.477Z,8.80
2018-09-15T22:58:20.834Z,8.87
2018-09-15T23:00:48.069Z,8.33
2018-09-15T23:03:15.231Z,8.00
2018-09-15T23:05:43.028Z,9.00
2018-09-15T23:08:10.280Z,9.03
2018-09-15T23:10:37.384Z,9.40
2018-09-15T23:13:04.716Z,9.50
2018-09-15T23:15:31.868Z,8.30
2018-09-15T23:17:59.112Z,7.60
2018-09-15T23:20:26.323Z,8.43
2018-09-15T23:22:53.886Z,8.17
2018-09-15T23:25:21.182Z,8.80
2018-09-15T23:27:48.352Z,7.20
2018-09-15T23:30:15.618Z,7.13
2018-09-15T23:32:42.869Z,7.27
2018-09-15T23:35:10.033Z,6.87
2018-09-15T23:37:37.593Z,7.67
2018-09-15T23:40:04.750Z,6.83
2018-09-15T23:42:31.913Z,6.60
2018-09-15T23:44:59.230Z,7.00
2018-09-15T23:47:26.459Z,7.23
2018-09-15T23:49:53.633Z,5.57
2018-09-15T23:52:20.864Z,6.23
2018-09-15T23:54:48.062Z,6.13
2018-09-15T23:57:15.244Z,5.77
2018-09-15T23:59:42.521Z,5.57
